Alleman, IA (50007)

8:47 PM CDT on July 06, 2015 (GMT -0500)
Creekside in Ankeny | | Change Station
CLOSE
Current Station
Personal Weather Station
Location: Ankeny, IA
Elevation: 980 ft
Nearby Weather Stations
Active Advisory: Special Statement

Elev 980 ft 41.77 °N, 93.59 °W | Updated 6 minutes ago

Mostly Cloudy
Mostly Cloudy
68.2 °F
Feels Like 68.2 °F
N
4.7
Wind Variable Wind from SSW

Today
High -- | Low -- °F
--% Chance of Precip.
Yesterday
High -- | Low -- °F
Precip. -- in
5:46 AM 8:52 PM
Waning Gibbous, 70% visible
Pressure 29.93 in
Visibility 3.0 miles
Clouds Mostly Cloudy 7000 ft
Mostly Cloudy 10000 ft
Dew Point 61 °F
Humidity 79%
Rainfall 2.46 in
Snow Depth Not available.
UV 0 out of 12
Pollen 1.30 out of 12
Air Quality Not available.
Flu Activity Not available.
METAR KIKV 070135Z AUTO 36015G20KT 3SM HZ BKN070 BKN100 21/17 A2993 RMK AO2

More Conditions Fewer Conditions

Pressure 29.93 in
Visibility 3.0 miles
Clouds Mostly Cloudy 7000 ft
Mostly Cloudy 10000 ft
Dew Point 61 °F
Humidity 79%
Rainfall 2.46 in
Snow Depth Not available.
UV 0 out of 12
Pollen 1.30 out of 12
Air Quality Not available.
Flu Activity Not available.
METAR KIKV 070135Z AUTO 36015G20KT 3SM HZ BKN070 BKN100 21/17 A2993 RMK AO2

More Conditions Fewer Conditions

10-Day Weather Forecast

×

Almanac

Astronomy

Jul. 06, 2015 Rise Set
Actual Time
Civil Twilight
Nautical Twilight
Astronomical Twilight
Moon
Length of Visible Light
Length of Day
Tomorrow will be .
, % of the Moon is Illuminated

Today's Extremes

State Highs State Lows

Community

WunderPhotos

Upload Photos

1,835,692 photos uploaded!

WunderBlogs® & News

Nearby

Air Quality

  Air Quality AQ Index Pollutant
Not available.

Snow Depth

Station Depth Elevation

Earthquake Activity

City Distance Mag. Time & Date
Minimum magnitude displayed is 2.5.

Coastal Water Temperatures

Place Temperature

Stations

Nearby Weather Stations

Station Location Temp. Windchill Dew Point Humidity Wind Precip. Elev Updated Type
                   
Special Statement
Statement as of 7:48 PM CDT on July 06, 2015

... Smoke spreading across much of Iowa...

A large area of smoke from wild fires in northern Canada has
descended to ground level and moved into Iowa this evening. The
smoke will be most noticeable across about the northwest half of
the state early tonight. Anyone with breathing difficulties or
other health issues... as well as the very Young and
elderly... should consider avoiding outside travel until the
situation improves.


Lee

748 PM CDT Mon Jul 6 2015

... Smoke spreading across much of Iowa...

A large area of smoke from wild fires in northern Canada has
descended to ground level and moved into Iowa this evening. The
smoke will be most noticeable across about the northwest half of
the state early tonight. Anyone with breathing difficulties or
other health issues... as well as the very Young and
elderly... should consider avoiding outside travel until the
situation improves.


Lee